createdAt,value
2023-04-29T00:01:39.076Z,69.99
2023-04-29T00:04:06.729Z,69.89
2023-04-29T00:06:34.314Z,69.75
2023-04-29T00:09:01.476Z,69.72
2023-04-29T00:11:29.090Z,69.68
2023-04-29T00:13:56.136Z,69.81
2023-04-29T00:16:23.251Z,70.33
2023-04-29T00:18:50.286Z,70.34
2023-04-29T00:21:17.332Z,70.62
2023-04-29T00:23:44.586Z,70.26
2023-04-29T00:26:11.923Z,70.50
2023-04-29T00:28:40.735Z,70.67
2023-04-29T00:31:07.833Z,70.74
2023-04-29T00:33:34.945Z,70.74
2023-04-29T00:36:02.329Z,71.05
2023-04-29T00:38:29.716Z,70.64
2023-04-29T00:40:57.461Z,70.48
2023-04-29T00:43:24.527Z,70.87
2023-04-29T00:45:51.632Z,70.40
2023-04-29T00:48:18.645Z,71.03
2023-04-29T00:50:45.826Z,70.75
2023-04-29T00:53:13.800Z,70.74
2023-04-29T00:55:42.433Z,70.43
2023-04-29T00:58:10.786Z,70.84
2023-04-29T01:00:38.172Z,70.72
2023-04-29T01:03:06.132Z,71.09
2023-04-29T01:05:33.967Z,70.71
2023-04-29T01:08:39.300Z,70.78
2023-04-29T01:11:12.084Z,71.08
2023-04-29T01:13:55.480Z,71.52
2023-04-29T01:16:29.394Z,71.26
2023-04-29T01:19:02.873Z,70.95
2023-04-29T01:21:47.521Z,71.19
2023-04-29T01:24:16.446Z,70.63
2023-04-29T01:26:56.829Z,71.12
2023-04-29T01:30:30.952Z,70.92
2023-04-29T01:33:09.736Z,70.68
2023-04-29T01:36:08.661Z,71.38
2023-04-29T01:38:47.560Z,71.15
2023-04-29T01:41:23.788Z,71.26
2023-04-29T01:43:57.126Z,71.39
2023-04-29T01:46:24.740Z,71.12
2023-04-29T01:48:56.176Z,71.10
2023-04-29T01:51:23.939Z,71.04
2023-04-29T01:53:51.724Z,70.93
2023-04-29T01:56:19.247Z,71.25
2023-04-29T01:59:18.454Z,71.16
2023-04-29T02:02:08.887Z,71.28
2023-04-29T02:04:41.075Z,71.14
2023-04-29T02:07:08.310Z,71.44
2023-04-29T02:09:35.667Z,71.08
2023-04-29T02:12:09.215Z,71.31
2023-04-29T02:14:37.766Z,71.43
2023-04-29T02:17:05.842Z,71.33
2023-04-29T02:19:33.322Z,71.74
2023-04-29T02:22:00.504Z,71.30
2023-04-29T02:24:27.782Z,71.42
2023-04-29T02:26:54.854Z,71.34
2023-04-29T02:29:21.976Z,71.21
2023-04-29T02:31:49.552Z,71.28
2023-04-29T02:34:16.899Z,71.58
2023-04-29T02:36:44.056Z,71.59
2023-04-29T02:39:11.548Z,71.17
2023-04-29T02:41:38.542Z,71.07
2023-04-29T02:44:07.550Z,71.31
2023-04-29T02:46:45.900Z,71.32
2023-04-29T02:49:14.236Z,71.29
2023-04-29T02:51:42.520Z,70.97
2023-04-29T02:54:09.837Z,70.99
2023-04-29T02:56:37.153Z,70.45
2023-04-29T02:59:04.165Z,71.12
2023-04-29T03:01:31.474Z,71.19
2023-04-29T03:03:58.756Z,70.96
2023-04-29T03:06:26.090Z,71.25
2023-04-29T03:08:53.208Z,71.38
2023-04-29T03:11:20.802Z,71.26
2023-04-29T03:13:47.866Z,70.95
2023-04-29T03:16:17.067Z,71.42
2023-04-29T03:18:45.230Z,70.90
2023-04-29T03:21:12.241Z,71.44
2023-04-29T03:23:42.392Z,71.13
2023-04-29T03:26:12.751Z,71.13
2023-04-29T03:28:39.771Z,71.29
2023-04-29T03:31:06.837Z,71.32
2023-04-29T03:33:34.058Z,71.18
2023-04-29T03:36:01.080Z,71.51
2023-04-29T03:38:38.331Z,71.56
2023-04-29T03:41:05.858Z,71.63
2023-04-29T03:43:33.393Z,71.44
2023-04-29T03:46:00.813Z,71.58
2023-04-29T03:48:28.219Z,71.47
2023-04-29T03:50:55.324Z,71.08
2023-04-29T03:53:22.607Z,71.85
2023-04-29T03:55:49.749Z,71.15
2023-04-29T03:58:17.488Z,71.66
2023-04-29T04:00:44.837Z,71.04
2023-04-29T04:03:17.649Z,70.69
2023-04-29T04:05:44.742Z,71.19
2023-04-29T04:08:14.859Z,71.11
2023-04-29T04:10:41.853Z,71.28
2023-04-29T04:13:20.526Z,71.05
2023-04-29T04:15:51.834Z,71.46
2023-04-29T04:18:18.937Z,71.10
2023-04-29T04:20:46.072Z,71.39
2023-04-29T04:23:13.677Z,71.55
2023-04-29T04:25:48.089Z,71.09
2023-04-29T04:28:38.469Z,71.16
2023-04-29T04:31:09.924Z,71.48
2023-04-29T04:33:37.042Z,71.41
2023-04-29T04:36:04.242Z,71.26
2023-04-29T04:38:33.061Z,71.93
2023-04-29T04:41:01.417Z,71.29
2023-04-29T04:43:35.180Z,71.29
2023-04-29T04:46:14.420Z,71.54
2023-04-29T04:48:51.823Z,71.53
2023-04-29T04:51:21.375Z,71.35
2023-04-29T04:53:49.564Z,71.14
2023-04-29T04:56:22.182Z,71.13
2023-04-29T04:58:49.806Z,71.60
2023-04-29T05:01:16.931Z,71.21
2023-04-29T05:03:44.261Z,71.30
2023-04-29T05:06:11.875Z,71.69
2023-04-29T05:08:41.308Z,70.76
2023-04-29T05:11:20.531Z,70.50
2023-04-29T05:14:01.560Z,70.75
2023-04-29T05:16:28.796Z,70.53
2023-04-29T05:18:56.079Z,70.61
2023-04-29T05:21:26.938Z,70.67
2023-04-29T05:23:53.942Z,71.06
2023-04-29T05:26:22.132Z,70.38
2023-04-29T05:28:50.923Z,70.35
2023-04-29T05:31:20.964Z,70.28
2023-04-29T05:33:48.087Z,70.21
2023-04-29T05:36:15.138Z,70.88
2023-04-29T05:38:42.781Z,70.89
2023-04-29T05:41:09.905Z,70.96
2023-04-29T05:44:02.152Z,70.45
2023-04-29T05:46:32.196Z,70.24
2023-04-29T05:48:59.383Z,70.60
2023-04-29T05:51:28.429Z,70.32
2023-04-29T05:53:55.852Z,70.30
2023-04-29T05:56:23.582Z,69.94
2023-04-29T05:58:50.717Z,70.29
2023-04-29T06:01:18.412Z,70.26
2023-04-29T06:03:46.492Z,69.96
2023-04-29T06:06:39.233Z,69.65
2023-04-29T06:09:23.829Z,70.18
2023-04-29T06:11:56.330Z,69.72
2023-04-29T06:14:23.905Z,69.36
2023-04-29T06:16:51.180Z,69.75
2023-04-29T06:19:18.253Z,69.62
2023-04-29T06:21:45.352Z,69.73
2023-04-29T06:24:12.439Z,69.51
2023-04-29T06:26:39.485Z,69.37
2023-04-29T06:29:06.707Z,69.20
2023-04-29T06:31:35.582Z,69.45
2023-04-29T06:34:04.353Z,69.35
2023-04-29T06:36:33.210Z,69.48
2023-04-29T06:39:18.672Z,69.47
2023-04-29T06:42:14.607Z,69.11
2023-04-29T06:45:00.754Z,69.40
2023-04-29T06:47:48.015Z,68.94
2023-04-29T06:50:24.814Z,69.18
2023-04-29T06:52:51.963Z,68.97
2023-04-29T06:55:19.287Z,69.03
2023-04-29T06:57:46.488Z,68.45
2023-04-29T07:00:16.101Z,68.21
2023-04-29T07:02:43.378Z,68.11
2023-04-29T07:05:10.738Z,68.02
2023-04-29T07:07:37.799Z,68.00
2023-04-29T07:10:05.260Z,67.44
2023-04-29T07:12:32.411Z,67.46
2023-04-29T07:14:59.999Z,67.28
2023-04-29T07:17:30.319Z,66.49
2023-04-29T07:19:57.715Z,65.95
2023-04-29T07:22:24.867Z,66.06
2023-04-29T07:24:55.663Z,65.01
2023-04-29T07:27:23.944Z,64.34
2023-04-29T07:29:52.573Z,64.22
2023-04-29T07:32:19.722Z,64.50
2023-04-29T07:34:48.880Z,63.50
2023-04-29T07:37:15.864Z,63.88
2023-04-29T07:39:42.886Z,63.63
2023-04-29T07:42:10.917Z,63.44
2023-04-29T07:44:38.689Z,63.70
2023-04-29T07:47:06.304Z,63.32
2023-04-29T07:49:33.472Z,63.34
2023-04-29T07:52:00.659Z,63.25
2023-04-29T07:54:27.931Z,62.78
2023-04-29T07:56:55.362Z,62.65
2023-04-29T07:59:22.703Z,62.27
2023-04-29T08:01:49.830Z,61.73
2023-04-29T08:04:17.023Z,61.68
2023-04-29T08:06:50.962Z,61.19
2023-04-29T08:09:18.229Z,60.52
2023-04-29T08:11:45.963Z,59.99
2023-04-29T08:14:13.734Z,60.13
2023-04-29T08:16:40.980Z,60.32
2023-04-29T08:19:08.137Z,59.48
2023-04-29T08:21:35.385Z,57.98
2023-04-29T08:24:02.814Z,57.78
2023-04-29T08:26:30.589Z,57.58
2023-04-29T08:28:57.583Z,58.01
2023-04-29T08:31:24.714Z,57.46
2023-04-29T08:33:52.331Z,57.41
2023-04-29T08:36:19.386Z,56.82
2023-04-29T08:38:47.146Z,56.93
2023-04-29T08:41:16.269Z,56.93
2023-04-29T08:43:44.637Z,56.78
2023-04-29T08:46:12.248Z,57.11
2023-04-29T08:48:43.459Z,56.89
2023-04-29T08:51:13.664Z,56.54
2023-04-29T08:53:40.782Z,55.96
2023-04-29T08:56:22.217Z,55.33
2023-04-29T08:58:54.716Z,55.26
2023-04-29T09:01:23.328Z,54.48
2023-04-29T09:04:12.588Z,54.07
2023-04-29T09:06:39.642Z,53.55
2023-04-29T09:09:07.126Z,53.16
2023-04-29T09:11:35.857Z,51.59
2023-04-29T09:14:04.430Z,49.31
2023-04-29T09:16:31.662Z,49.39
2023-04-29T09:18:58.709Z,48.96
2023-04-29T09:21:27.773Z,49.71
2023-04-29T09:23:57.136Z,50.24
2023-04-29T09:26:25.172Z,49.53
2023-04-29T09:29:14.201Z,46.81
2023-04-29T09:31:42.371Z,48.84
2023-04-29T09:34:12.024Z,48.06
2023-04-29T09:36:51.088Z,41.67
2023-04-29T09:39:22.638Z,45.29
2023-04-29T09:41:52.480Z,44.43
2023-04-29T09:44:25.069Z,41.38
2023-04-29T09:47:03.193Z,43.58
2023-04-29T09:49:32.912Z,41.58
2023-04-29T09:52:01.289Z,41.59
2023-04-29T09:54:32.714Z,41.09
2023-04-29T09:57:02.433Z,41.18
2023-04-29T09:59:30.016Z,41.74
2023-04-29T10:01:58.660Z,42.75
2023-04-29T10:04:28.154Z,43.45
2023-04-29T10:06:56.575Z,42.37
2023-04-29T10:09:24.346Z,41.26
2023-04-29T10:11:52.813Z,42.25
2023-04-29T10:14:22.539Z,42.31
2023-04-29T10:17:25.227Z,42.54
2023-04-29T10:20:05.953Z,43.15
2023-04-29T10:22:45.614Z,39.52
2023-04-29T10:25:14.801Z,42.02
2023-04-29T10:27:46.000Z,42.84
2023-04-29T10:30:14.791Z,42.95
2023-04-29T10:32:50.653Z,42.73
2023-04-29T10:35:20.398Z,43.36
2023-04-29T10:37:49.064Z,43.53
2023-04-29T10:40:24.976Z,43.26
2023-04-29T10:42:53.546Z,43.73
2023-04-29T10:45:28.808Z,44.02
2023-04-29T10:48:02.926Z,43.76
2023-04-29T10:50:31.603Z,44.11
2023-04-29T10:53:01.784Z,43.91
2023-04-29T10:55:29.472Z,43.95
2023-04-29T10:57:57.380Z,43.55
2023-04-29T11:00:28.715Z,42.92
2023-04-29T11:02:57.191Z,43.32
2023-04-29T11:05:35.242Z,42.72
2023-04-29T11:08:16.490Z,41.88
2023-04-29T11:10:44.274Z,43.49
2023-04-29T11:13:29.823Z,41.16
2023-04-29T11:16:07.048Z,41.65
2023-04-29T11:18:35.592Z,42.54
2023-04-29T11:21:08.836Z,42.53
2023-04-29T11:23:42.362Z,42.91
2023-04-29T11:26:09.813Z,43.36
2023-04-29T11:28:37.128Z,43.35
2023-04-29T11:31:04.426Z,43.53
2023-04-29T11:33:34.192Z,43.13
2023-04-29T11:36:01.311Z,42.92
2023-04-29T11:38:30.395Z,42.95
2023-04-29T11:41:00.144Z,43.22
2023-04-29T11:43:27.128Z,42.68
2023-04-29T11:45:54.340Z,41.68
2023-04-29T11:48:23.129Z,41.85
2023-04-29T11:50:52.388Z,41.93
2023-04-29T11:53:25.355Z,39.80
2023-04-29T11:55:56.114Z,39.80
2023-04-29T11:58:24.157Z,41.01
2023-04-29T12:00:54.370Z,41.30
2023-04-29T12:03:22.103Z,41.11
2023-04-29T12:05:52.932Z,40.93
2023-04-29T12:08:21.355Z,41.29
2023-04-29T12:10:49.095Z,40.94
2023-04-29T12:13:18.452Z,39.76
2023-04-29T12:15:47.985Z,39.81
2023-04-29T12:18:15.488Z,40.06
2023-04-29T12:20:42.744Z,40.24
2023-04-29T12:23:12.857Z,40.13
2023-04-29T12:25:43.798Z,40.03
2023-04-29T12:28:14.175Z,39.62
2023-04-29T12:30:41.762Z,39.85
2023-04-29T12:33:09.937Z,39.74
2023-04-29T12:35:40.192Z,39.22
2023-04-29T12:38:08.794Z,37.81
2023-04-29T12:40:35.896Z,37.59
2023-04-29T12:43:11.087Z,37.70
2023-04-29T12:45:39.282Z,38.32
2023-04-29T12:48:10.057Z,38.68
2023-04-29T12:50:50.155Z,37.53
2023-04-29T12:53:17.258Z,38.21
2023-04-29T12:55:44.329Z,38.38
2023-04-29T12:58:11.572Z,38.15
2023-04-29T13:00:38.848Z,37.96
2023-04-29T13:03:06.522Z,37.88
2023-04-29T13:05:34.025Z,38.04
2023-04-29T13:08:01.633Z,38.03
2023-04-29T13:10:28.806Z,37.58
2023-04-29T13:12:56.085Z,37.96
2023-04-29T13:15:23.277Z,37.16
2023-04-29T13:17:50.312Z,37.48
2023-04-29T13:20:17.599Z,36.56
2023-04-29T13:22:45.459Z,36.98
2023-04-29T13:25:12.709Z,36.69
2023-04-29T13:27:39.888Z,36.67
2023-04-29T13:30:07.707Z,36.65
2023-04-29T13:32:43.887Z,36.44
2023-04-29T13:35:12.335Z,36.81
2023-04-29T13:37:39.424Z,36.17
2023-04-29T13:40:08.100Z,36.01
2023-04-29T13:42:44.075Z,36.23
2023-04-29T13:45:16.875Z,36.28
2023-04-29T13:48:03.092Z,36.70
2023-04-29T13:53:35.866Z,36.38
2023-04-29T13:56:41.172Z,36.20
2023-04-29T14:01:37.734Z,35.70
2023-04-29T14:03:53.490Z,35.36
2023-04-29T14:06:20.679Z,35.36
2023-04-29T14:08:47.693Z,34.78
2023-04-29T14:11:14.860Z,34.80
2023-04-29T14:13:42.084Z,34.81
2023-04-29T14:16:09.617Z,34.88
2023-04-29T14:18:36.779Z,34.75
2023-04-29T14:21:03.963Z,34.71
2023-04-29T14:23:31.060Z,34.86
2023-04-29T14:26:16.559Z,35.35
2023-04-29T14:28:45.125Z,35.08
2023-04-29T14:31:13.927Z,34.86
2023-04-29T14:33:41.179Z,34.82
2023-04-29T14:36:09.368Z,35.02
2023-04-29T14:38:36.479Z,34.93
2023-04-29T14:41:03.702Z,35.04
2023-04-29T14:43:30.818Z,34.56
2023-04-29T14:45:57.947Z,34.45
2023-04-29T14:48:25.256Z,34.06
2023-04-29T14:50:52.330Z,34.45
2023-04-29T14:53:19.462Z,34.57
2023-04-29T14:55:46.699Z,34.81
2023-04-29T14:58:13.718Z,35.24
2023-04-29T15:00:40.841Z,35.30
2023-04-29T15:03:10.287Z,35.47
2023-04-29T15:05:37.809Z,35.00
2023-04-29T15:08:05.120Z,34.64
2023-04-29T15:10:32.683Z,34.62
2023-04-29T15:12:59.737Z,34.93
2023-04-29T15:15:26.852Z,35.05
2023-04-29T15:17:53.913Z,34.95
2023-04-29T15:20:21.095Z,34.81
2023-04-29T15:22:48.185Z,34.69
2023-04-29T15:25:15.786Z,34.43
2023-04-29T15:27:43.007Z,34.98
2023-04-29T15:30:10.606Z,35.75
2023-04-29T15:32:37.684Z,35.31
2023-04-29T15:35:06.751Z,34.87
2023-04-29T15:37:34.642Z,35.32
2023-04-29T15:40:02.232Z,35.76
2023-04-29T15:42:30.784Z,35.75
2023-04-29T15:44:57.847Z,36.07
2023-04-29T15:47:24.922Z,36.58
2023-04-29T15:49:52.525Z,36.72
2023-04-29T15:52:19.898Z,36.52
2023-04-29T15:54:47.027Z,36.81
2023-04-29T15:57:14.405Z,36.70
2023-04-29T15:59:41.455Z,37.13
2023-04-29T16:02:11.068Z,37.18
2023-04-29T16:04:38.671Z,37.01
2023-04-29T16:07:05.856Z,37.53
2023-04-29T16:09:34.048Z,37.42
2023-04-29T16:12:02.219Z,37.46
2023-04-29T16:14:30.177Z,37.96
2023-04-29T16:16:57.364Z,38.00
2023-04-29T16:19:24.506Z,38.01
2023-04-29T16:21:51.617Z,38.37
2023-04-29T16:24:18.693Z,38.18
2023-04-29T16:26:45.821Z,38.76
2023-04-29T16:29:13.519Z,38.69
2023-04-29T16:31:40.669Z,38.85
2023-04-29T16:34:07.805Z,38.74
2023-04-29T16:36:34.837Z,38.72
2023-04-29T16:39:04.230Z,39.00
2023-04-29T16:41:32.472Z,39.52
2023-04-29T16:43:59.507Z,39.83
2023-04-29T16:46:26.725Z,39.45
2023-04-29T16:48:56.884Z,39.63
2023-04-29T16:51:29.278Z,40.01
2023-04-29T16:53:56.833Z,40.30
2023-04-29T16:56:23.924Z,40.60
2023-04-29T16:58:51.264Z,40.57
2023-04-29T17:01:21.419Z,41.38
2023-04-29T17:03:49.653Z,41.76
2023-04-29T17:06:16.881Z,41.72
2023-04-29T17:08:44.722Z,41.84
2023-04-29T17:11:12.059Z,42.07
2023-04-29T17:13:39.109Z,42.38
2023-04-29T17:16:07.220Z,42.43
2023-04-29T17:18:34.441Z,42.21
2023-04-29T17:21:02.871Z,42.28
2023-04-29T17:23:30.877Z,42.73
2023-04-29T17:26:04.887Z,42.74
2023-04-29T17:28:36.455Z,43.31
2023-04-29T17:31:03.792Z,43.69
2023-04-29T17:33:39.656Z,43.89
2023-04-29T17:36:06.806Z,44.63
2023-04-29T17:38:33.829Z,44.55
2023-04-29T17:41:02.161Z,44.55
2023-04-29T17:43:32.519Z,45.06
2023-04-29T17:45:59.823Z,44.72
2023-04-29T17:48:27.578Z,45.32
2023-04-29T17:50:54.782Z,45.92
2023-04-29T17:53:21.855Z,46.19
2023-04-29T17:55:48.905Z,46.87
2023-04-29T17:58:15.905Z,46.48
2023-04-29T18:00:43.057Z,47.15
2023-04-29T18:03:10.167Z,46.83
2023-04-29T18:05:37.174Z,47.12
2023-04-29T18:08:04.426Z,47.33
2023-04-29T18:10:31.541Z,47.86
2023-04-29T18:12:58.602Z,47.44
2023-04-29T18:15:25.665Z,48.05
2023-04-29T18:17:54.579Z,48.16
2023-04-29T18:20:22.602Z,48.10
2023-04-29T18:22:50.732Z,48.09
2023-04-29T18:25:18.029Z,48.67
2023-04-29T18:27:45.058Z,48.85
2023-04-29T18:30:12.441Z,49.16
2023-04-29T18:32:39.705Z,49.22
2023-04-29T18:35:07.227Z,49.46
2023-04-29T18:37:34.731Z,49.67
2023-04-29T18:40:01.888Z,49.82
2023-04-29T18:42:30.850Z,50.02
2023-04-29T18:44:57.899Z,50.50
2023-04-29T18:47:24.950Z,51.33
2023-04-29T18:49:52.035Z,51.21
2023-04-29T18:52:19.182Z,51.38
2023-04-29T18:54:46.343Z,51.69
2023-04-29T18:57:13.362Z,51.73
2023-04-29T18:59:41.568Z,52.39
2023-04-29T19:02:08.962Z,52.76
2023-04-29T19:04:36.179Z,52.88
2023-04-29T19:07:06.186Z,53.03
2023-04-29T19:09:33.597Z,52.96
2023-04-29T19:12:03.637Z,53.55
2023-04-29T19:14:34.255Z,53.96
2023-04-29T19:17:01.821Z,53.96
2023-04-29T19:19:30.281Z,53.98
2023-04-29T19:21:57.749Z,54.29
2023-04-29T19:24:24.841Z,54.13
2023-04-29T19:26:51.933Z,54.52
2023-04-29T19:29:19.025Z,54.88
2023-04-29T19:31:46.244Z,54.91
2023-04-29T19:34:13.341Z,55.32
2023-04-29T19:36:40.374Z,55.08
2023-04-29T19:39:10.819Z,55.15
2023-04-29T19:41:38.056Z,55.42
2023-04-29T19:44:05.236Z,55.75
2023-04-29T19:46:32.586Z,55.51
2023-04-29T19:48:59.769Z,55.87
2023-04-29T19:51:26.946Z,55.82
2023-04-29T19:53:56.756Z,56.05
2023-04-29T19:56:23.991Z,56.22
2023-04-29T19:58:51.187Z,56.38
2023-04-29T20:01:23.905Z,56.73
2023-04-29T20:03:51.026Z,56.73
2023-04-29T20:06:18.376Z,56.96
2023-04-29T20:08:45.701Z,57.54
2023-04-29T20:11:13.474Z,57.32
2023-04-29T20:13:40.822Z,57.25
2023-04-29T20:16:08.075Z,57.18
2023-04-29T20:18:36.399Z,57.41
2023-04-29T20:21:03.578Z,57.58
2023-04-29T20:23:30.789Z,57.53
2023-04-29T20:25:58.493Z,57.17
2023-04-29T20:28:25.629Z,57.49
2023-04-29T20:30:52.681Z,57.25
2023-04-29T20:33:21.118Z,57.32
2023-04-29T20:35:48.212Z,57.38
2023-04-29T20:38:15.233Z,57.30
2023-04-29T20:40:42.322Z,57.52
2023-04-29T20:43:09.988Z,57.52
2023-04-29T20:45:37.937Z,57.41
2023-04-29T20:48:05.726Z,57.25
2023-04-29T20:50:32.795Z,57.64
2023-04-29T20:52:59.916Z,57.50
2023-04-29T20:55:27.082Z,57.41
2023-04-29T20:57:54.116Z,57.39
2023-04-29T21:00:21.261Z,57.56
2023-04-29T21:02:48.693Z,57.40
2023-04-29T21:05:15.981Z,57.75
2023-04-29T21:07:43.022Z,57.58
2023-04-29T21:10:10.219Z,57.71
2023-04-29T21:12:37.296Z,57.50
2023-04-29T21:15:06.120Z,57.89
2023-04-29T21:17:33.327Z,57.90
2023-04-29T21:20:01.005Z,57.76
2023-04-29T21:22:28.138Z,57.72
2023-04-29T21:24:55.133Z,57.63
2023-04-29T21:27:22.248Z,58.06
2023-04-29T21:29:49.214Z,57.91
2023-04-29T21:32:21.598Z,57.82
2023-04-29T21:34:49.174Z,58.10
2023-04-29T21:37:16.648Z,58.09
2023-04-29T21:39:43.649Z,58.25
2023-04-29T21:42:11.272Z,58.22
2023-04-29T21:44:38.796Z,58.37
2023-04-29T21:47:06.957Z,58.25
2023-04-29T21:49:34.404Z,58.29
2023-04-29T21:52:01.857Z,58.65
2023-04-29T21:54:28.891Z,58.55
2023-04-29T21:56:56.265Z,58.48
2023-04-29T21:59:23.271Z,58.75
2023-04-29T22:01:59.878Z,58.67
2023-04-29T22:04:28.414Z,58.67
2023-04-29T22:06:59.191Z,59.02
2023-04-29T22:09:26.287Z,58.91
2023-04-29T22:11:53.295Z,58.81
2023-04-29T22:14:20.462Z,58.98
2023-04-29T22:16:47.590Z,58.95
2023-04-29T22:19:14.608Z,58.85
2023-04-29T22:21:43.147Z,59.10
2023-04-29T22:24:10.375Z,59.15
2023-04-29T22:26:37.415Z,58.91
2023-04-29T22:29:04.695Z,59.01
2023-04-29T22:31:31.784Z,59.34
2023-04-29T22:33:58.813Z,59.54
2023-04-29T22:36:26.322Z,59.31
2023-04-29T22:38:53.403Z,59.55
2023-04-29T22:41:20.460Z,59.64
2023-04-29T22:43:47.554Z,59.49
2023-04-29T22:46:14.691Z,59.66
2023-04-29T22:48:41.671Z,59.77
2023-04-29T22:51:08.813Z,59.65
2023-04-29T22:53:35.790Z,59.77
2023-04-29T22:56:03.298Z,59.57
2023-04-29T22:58:30.646Z,59.87
2023-04-29T23:00:58.089Z,59.99
2023-04-29T23:03:26.054Z,59.92
2023-04-29T23:06:02.694Z,60.42
2023-04-29T23:08:29.876Z,60.31
2023-04-29T23:10:56.860Z,60.15
2023-04-29T23:13:23.951Z,60.15
2023-04-29T23:15:51.055Z,60.39
2023-04-29T23:18:18.091Z,60.36
2023-04-29T23:20:48.248Z,60.64
2023-04-29T23:23:15.339Z,60.80
2023-04-29T23:25:42.830Z,60.74
2023-04-29T23:28:09.865Z,60.96
2023-04-29T23:30:36.865Z,61.28
2023-04-29T23:33:04.079Z,61.25
2023-04-29T23:35:31.824Z,61.18
2023-04-29T23:37:58.834Z,61.13
2023-04-29T23:40:26.150Z,61.13
2023-04-29T23:42:53.187Z,61.40
2023-04-29T23:45:20.499Z,61.30
2023-04-29T23:47:47.499Z,61.32
2023-04-29T23:50:14.736Z,61.53
2023-04-29T23:52:41.836Z,61.62
2023-04-29T23:55:09.616Z,61.42
2023-04-29T23:57:36.670Z,61.48
